sensor_id;sensor_type;location;lat;lon;timestamp;temperature;humidity
326;DHT22;150;52.352;14.058;2023-08-21T00:02:22;24.70;39.40
326;DHT22;150;52.352;14.058;2023-08-21T00:04:48;24.50;39.50
326;DHT22;150;52.352;14.058;2023-08-21T00:07:15;24.60;39.80
326;DHT22;150;52.352;14.058;2023-08-21T00:09:41;24.60;39.40
326;DHT22;150;52.352;14.058;2023-08-21T00:12:09;24.60;39.30
326;DHT22;150;52.352;14.058;2023-08-21T00:14:36;24.50;39.90
326;DHT22;150;52.352;14.058;2023-08-21T00:17:03;24.50;39.90
326;DHT22;150;52.352;14.058;2023-08-21T00:19:30;24.50;39.50
326;DHT22;150;52.352;14.058;2023-08-21T00:21:56;24.50;39.90
326;DHT22;150;52.352;14.058;2023-08-21T00:24:23;24.50;39.90
326;DHT22;150;52.352;14.058;2023-08-21T00:26:50;24.50;40.80
326;DHT22;150;52.352;14.058;2023-08-21T00:29:17;24.50;39.90
326;DHT22;150;52.352;14.058;2023-08-21T00:31:44;24.60;39.20
326;DHT22;150;52.352;14.058;2023-08-21T00:34:11;24.50;39.30
326;DHT22;150;52.352;14.058;2023-08-21T00:36:37;24.50;39.50
326;DHT22;150;52.352;14.058;2023-08-21T00:39:04;24.40;39.90
326;DHT22;150;52.352;14.058;2023-08-21T00:41:32;24.50;39.60
326;DHT22;150;52.352;14.058;2023-08-21T00:43:59;24.50;39.50
326;DHT22;150;52.352;14.058;2023-08-21T00:46:27;24.50;39.50
326;DHT22;150;52.352;14.058;2023-08-21T00:48:54;24.50;39.30
326;DHT22;150;52.352;14.058;2023-08-21T00:51:21;24.50;39.10
326;DHT22;150;52.352;14.058;2023-08-21T00:53:48;24.60;39.50
326;DHT22;150;52.352;14.058;2023-08-21T00:56:15;24.50;39.00
326;DHT22;150;52.352;14.058;2023-08-21T00:58:42;24.50;39.00
326;DHT22;150;52.352;14.058;2023-08-21T01:01:09;24.40;39.50
326;DHT22;150;52.352;14.058;2023-08-21T01:03:37;24.40;39.80
326;DHT22;150;52.352;14.058;2023-08-21T01:06:04;24.40;40.10
326;DHT22;150;52.352;14.058;2023-08-21T01:08:40;24.40;40.30
326;DHT22;150;52.352;14.058;2023-08-21T01:11:16;24.40;40.40
326;DHT22;150;52.352;14.058;2023-08-21T01:13:49;24.50;40.00
326;DHT22;150;52.352;14.058;2023-08-21T01:16:22;24.40;39.80
326;DHT22;150;52.352;14.058;2023-08-21T01:18:52;24.40;40.00
326;DHT22;150;52.352;14.058;2023-08-21T01:21:20;24.40;40.10
326;DHT22;150;52.352;14.058;2023-08-21T01:23:48;24.40;40.30
326;DHT22;150;52.352;14.058;2023-08-21T01:26:15;24.30;40.80
326;DHT22;150;52.352;14.058;2023-08-21T01:28:42;24.30;40.10
326;DHT22;150;52.352;14.058;2023-08-21T01:31:11;24.40;40.40
326;DHT22;150;52.352;14.058;2023-08-21T01:33:44;24.40;40.20
326;DHT22;150;52.352;14.058;2023-08-21T01:36:13;24.40;40.50
326;DHT22;150;52.352;14.058;2023-08-21T01:38:40;24.30;40.20
326;DHT22;150;52.352;14.058;2023-08-21T01:41:09;24.40;40.30
326;DHT22;150;52.352;14.058;2023-08-21T01:43:35;24.30;40.30
326;DHT22;150;52.352;14.058;2023-08-21T01:46:02;24.30;40.30
326;DHT22;150;52.352;14.058;2023-08-21T01:48:29;24.30;41.50
326;DHT22;150;52.352;14.058;2023-08-21T01:50:56;24.30;40.50
326;DHT22;150;52.352;14.058;2023-08-21T01:53:23;24.30;40.50
326;DHT22;150;52.352;14.058;2023-08-21T01:55:49;24.40;40.20
326;DHT22;150;52.352;14.058;2023-08-21T01:58:17;24.30;40.10
326;DHT22;150;52.352;14.058;2023-08-21T02:00:46;24.30;40.00
326;DHT22;150;52.352;14.058;2023-08-21T02:03:12;24.30;39.70
326;DHT22;150;52.352;14.058;2023-08-21T02:05:40;24.30;39.60
326;DHT22;150;52.352;14.058;2023-08-21T02:08:08;24.40;40.10
326;DHT22;150;52.352;14.058;2023-08-21T02:10:35;24.30;40.10
326;DHT22;150;52.352;14.058;2023-08-21T02:13:02;24.30;40.10
326;DHT22;150;52.352;14.058;2023-08-21T02:15:30;24.40;40.30
326;DHT22;150;52.352;14.058;2023-08-21T02:17:56;24.40;39.90
326;DHT22;150;52.352;14.058;2023-08-21T02:20:23;25.10;40.40
326;DHT22;150;52.352;14.058;2023-08-21T02:22:50;24.50;39.70
326;DHT22;150;52.352;14.058;2023-08-21T02:25:16;24.50;39.80
326;DHT22;150;52.352;14.058;2023-08-21T02:27:43;24.50;39.40
326;DHT22;150;52.352;14.058;2023-08-21T02:30:10;24.50;39.00
326;DHT22;150;52.352;14.058;2023-08-21T02:32:38;24.50;38.90
326;DHT22;150;52.352;14.058;2023-08-21T02:35:06;24.40;39.10
326;DHT22;150;52.352;14.058;2023-08-21T02:37:33;24.40;39.30
326;DHT22;150;52.352;14.058;2023-08-21T02:39:59;24.60;39.60
326;DHT22;150;52.352;14.058;2023-08-21T02:42:26;24.40;39.40
326;DHT22;150;52.352;14.058;2023-08-21T02:44:53;24.50;39.10
326;DHT22;150;52.352;14.058;2023-08-21T02:47:19;24.50;39.00
326;DHT22;150;52.352;14.058;2023-08-21T02:49:47;24.50;38.80
326;DHT22;150;52.352;14.058;2023-08-21T02:52:14;24.50;38.80
326;DHT22;150;52.352;14.058;2023-08-21T02:54:41;24.50;39.00
326;DHT22;150;52.352;14.058;2023-08-21T02:57:07;25.10;39.80
326;DHT22;150;52.352;14.058;2023-08-21T02:59:34;24.50;39.00
326;DHT22;150;52.352;14.058;2023-08-21T03:02:00;24.50;38.70
326;DHT22;150;52.352;14.058;2023-08-21T03:04:27;24.50;39.00
326;DHT22;150;52.352;14.058;2023-08-21T03:06:55;24.50;38.90
326;DHT22;150;52.352;14.058;2023-08-21T03:09:22;24.40;38.60
326;DHT22;150;52.352;14.058;2023-08-21T03:11:48;24.40;38.30
326;DHT22;150;52.352;14.058;2023-08-21T03:14:15;24.40;38.60
326;DHT22;150;52.352;14.058;2023-08-21T03:16:41;24.30;38.90
326;DHT22;150;52.352;14.058;2023-08-21T03:19:08;24.30;39.00
326;DHT22;150;52.352;14.058;2023-08-21T03:21:35;24.20;38.90
326;DHT22;150;52.352;14.058;2023-08-21T03:24:03;24.20;39.00
326;DHT22;150;52.352;14.058;2023-08-21T03:26:29;24.00;39.10
326;DHT22;150;52.352;14.058;2023-08-21T03:28:56;23.90;39.90
326;DHT22;150;52.352;14.058;2023-08-21T03:31:23;24.00;40.60
326;DHT22;150;52.352;14.058;2023-08-21T03:33:49;24.00;40.50
326;DHT22;150;52.352;14.058;2023-08-21T03:36:16;24.00;40.20
326;DHT22;150;52.352;14.058;2023-08-21T03:38:43;24.00;40.00
326;DHT22;150;52.352;14.058;2023-08-21T03:41:11;24.00;39.60
326;DHT22;150;52.352;14.058;2023-08-21T03:43:38;24.00;40.00
326;DHT22;150;52.352;14.058;2023-08-21T03:46:04;24.10;39.60
326;DHT22;150;52.352;14.058;2023-08-21T03:48:31;24.20;39.20
326;DHT22;150;52.352;14.058;2023-08-21T03:50:58;24.20;39.00
326;DHT22;150;52.352;14.058;2023-08-21T03:53:24;24.20;38.60
326;DHT22;150;52.352;14.058;2023-08-21T03:55:51;24.30;38.80
326;DHT22;150;52.352;14.058;2023-08-21T03:58:19;24.80;39.00
326;DHT22;150;52.352;14.058;2023-08-21T04:00:46;24.30;37.10
326;DHT22;150;52.352;14.058;2023-08-21T04:03:13;24.30;37.10
326;DHT22;150;52.352;14.058;2023-08-21T04:05:39;24.30;37.00
326;DHT22;150;52.352;14.058;2023-08-21T04:08:06;24.20;37.00
326;DHT22;150;52.352;14.058;2023-08-21T04:10:33;24.30;36.00
326;DHT22;150;52.352;14.058;2023-08-21T04:13:00;24.30;36.00
326;DHT22;150;52.352;14.058;2023-08-21T04:15:28;24.30;36.20
326;DHT22;150;52.352;14.058;2023-08-21T04:17:54;24.50;36.50
326;DHT22;150;52.352;14.058;2023-08-21T04:20:21;24.40;35.80
326;DHT22;150;52.352;14.058;2023-08-21T04:22:48;24.40;36.10
326;DHT22;150;52.352;14.058;2023-08-21T04:25:15;24.40;35.50
326;DHT22;150;52.352;14.058;2023-08-21T04:27:42;24.50;34.70
326;DHT22;150;52.352;14.058;2023-08-21T04:30:09;24.50;34.30
326;DHT22;150;52.352;14.058;2023-08-21T04:32:37;24.50;34.40
326;DHT22;150;52.352;14.058;2023-08-21T04:35:04;24.50;34.30
326;DHT22;150;52.352;14.058;2023-08-21T04:37:33;24.50;34.30
326;DHT22;150;52.352;14.058;2023-08-21T04:40:00;24.50;34.30
326;DHT22;150;52.352;14.058;2023-08-21T04:42:26;24.60;35.10
326;DHT22;150;52.352;14.058;2023-08-21T04:44:53;24.50;34.30
326;DHT22;150;52.352;14.058;2023-08-21T04:47:21;24.50;34.30
326;DHT22;150;52.352;14.058;2023-08-21T04:49:50;24.60;34.50
326;DHT22;150;52.352;14.058;2023-08-21T04:52:17;24.60;34.40
326;DHT22;150;52.352;14.058;2023-08-21T04:54:43;24.70;34.00
326;DHT22;150;52.352;14.058;2023-08-21T04:57:10;24.70;34.10
326;DHT22;150;52.352;14.058;2023-08-21T04:59:37;24.80;34.20
326;DHT22;150;52.352;14.058;2023-08-21T05:02:04;24.80;34.60
326;DHT22;150;52.352;14.058;2023-08-21T05:04:31;25.20;34.30
326;DHT22;150;52.352;14.058;2023-08-21T05:06:59;24.90;33.10
326;DHT22;150;52.352;14.058;2023-08-21T05:09:25;24.90;33.60
326;DHT22;150;52.352;14.058;2023-08-21T05:11:53;24.80;32.30
326;DHT22;150;52.352;14.058;2023-08-21T05:14:20;24.90;33.40
326;DHT22;150;52.352;14.058;2023-08-21T05:16:48;25.40;33.60
326;DHT22;150;52.352;14.058;2023-08-21T05:19:14;24.90;32.90
326;DHT22;150;52.352;14.058;2023-08-21T05:21:41;25.00;34.70
326;DHT22;150;52.352;14.058;2023-08-21T05:24:09;25.00;32.90
326;DHT22;150;52.352;14.058;2023-08-21T05:26:36;25.00;31.60
326;DHT22;150;52.352;14.058;2023-08-21T05:29:02;25.00;31.40
326;DHT22;150;52.352;14.058;2023-08-21T05:31:29;25.30;31.50
326;DHT22;150;52.352;14.058;2023-08-21T05:33:56;25.10;30.70
326;DHT22;150;52.352;14.058;2023-08-21T05:36:23;25.20;30.90
326;DHT22;150;52.352;14.058;2023-08-21T05:38:49;25.20;31.20
326;DHT22;150;52.352;14.058;2023-08-21T05:41:18;25.20;31.20
326;DHT22;150;52.352;14.058;2023-08-21T05:43:44;25.20;31.10
326;DHT22;150;52.352;14.058;2023-08-21T05:46:12;25.20;31.10
326;DHT22;150;52.352;14.058;2023-08-21T05:48:39;25.20;30.90
326;DHT22;150;52.352;14.058;2023-08-21T05:51:06;25.20;30.90
326;DHT22;150;52.352;14.058;2023-08-21T05:53:32;25.20;31.70
326;DHT22;150;52.352;14.058;2023-08-21T05:55:59;25.30;30.80
326;DHT22;150;52.352;14.058;2023-08-21T05:58:27;25.40;30.40
326;DHT22;150;52.352;14.058;2023-08-21T06:00:57;25.50;29.90
326;DHT22;150;52.352;14.058;2023-08-21T06:03:25;25.50;29.90
326;DHT22;150;52.352;14.058;2023-08-21T06:05:52;25.70;30.10
326;DHT22;150;52.352;14.058;2023-08-21T06:08:18;25.80;29.60
326;DHT22;150;52.352;14.058;2023-08-21T06:10:45;26.00;29.50
326;DHT22;150;52.352;14.058;2023-08-21T06:13:11;26.00;28.30
326;DHT22;150;52.352;14.058;2023-08-21T06:15:39;25.90;28.70
326;DHT22;150;52.352;14.058;2023-08-21T06:18:10;25.90;28.00
326;DHT22;150;52.352;14.058;2023-08-21T06:20:36;26.00;28.50
326;DHT22;150;52.352;14.058;2023-08-21T06:23:03;26.10;28.90
326;DHT22;150;52.352;14.058;2023-08-21T06:25:30;26.20;27.80
326;DHT22;150;52.352;14.058;2023-08-21T06:27:58;26.20;27.20
326;DHT22;150;52.352;14.058;2023-08-21T06:30:25;26.30;27.50
326;DHT22;150;52.352;14.058;2023-08-21T06:32:53;26.40;27.00
326;DHT22;150;52.352;14.058;2023-08-21T06:35:19;26.50;27.30
326;DHT22;150;52.352;14.058;2023-08-21T06:37:46;26.60;27.50
326;DHT22;150;52.352;14.058;2023-08-21T06:40:13;26.60;26.20
326;DHT22;150;52.352;14.058;2023-08-21T06:42:39;26.70;26.50
326;DHT22;150;52.352;14.058;2023-08-21T06:45:06;26.80;26.40
326;DHT22;150;52.352;14.058;2023-08-21T06:47:33;26.90;26.60
326;DHT22;150;52.352;14.058;2023-08-21T06:50:01;26.80;25.90
326;DHT22;150;52.352;14.058;2023-08-21T06:52:28;26.60;25.40
326;DHT22;150;52.352;14.058;2023-08-21T06:54:54;26.60;25.80
326;DHT22;150;52.352;14.058;2023-08-21T06:57:21;26.50;25.80
326;DHT22;150;52.352;14.058;2023-08-21T06:59:48;26.70;25.90
326;DHT22;150;52.352;14.058;2023-08-21T07:02:14;26.80;25.90
326;DHT22;150;52.352;14.058;2023-08-21T07:04:41;26.90;24.70
326;DHT22;150;52.352;14.058;2023-08-21T07:07:09;26.90;25.00
326;DHT22;150;52.352;14.058;2023-08-21T07:09:35;27.00;24.30
326;DHT22;150;52.352;14.058;2023-08-21T07:12:02;26.80;23.40
326;DHT22;150;52.352;14.058;2023-08-21T07:14:29;26.90;24.00
326;DHT22;150;52.352;14.058;2023-08-21T07:16:55;26.90;24.20
326;DHT22;150;52.352;14.058;2023-08-21T07:19:22;26.90;24.00
326;DHT22;150;52.352;14.058;2023-08-21T07:21:49;27.00;24.70
326;DHT22;150;52.352;14.058;2023-08-21T07:24:16;27.10;23.80
326;DHT22;150;52.352;14.058;2023-08-21T07:26:43;27.20;23.60
326;DHT22;150;52.352;14.058;2023-08-21T07:29:10;27.30;24.30
326;DHT22;150;52.352;14.058;2023-08-21T07:31:36;27.30;23.40
326;DHT22;150;52.352;14.058;2023-08-21T07:34:03;27.30;23.30
326;DHT22;150;52.352;14.058;2023-08-21T07:36:31;27.30;23.40
326;DHT22;150;52.352;14.058;2023-08-21T07:38:58;27.40;23.30
326;DHT22;150;52.352;14.058;2023-08-21T07:41:26;27.50;23.40
326;DHT22;150;52.352;14.058;2023-08-21T07:43:52;27.60;23.40
326;DHT22;150;52.352;14.058;2023-08-21T07:46:19;27.50;23.70
326;DHT22;150;52.352;14.058;2023-08-21T07:48:46;27.40;23.80
326;DHT22;150;52.352;14.058;2023-08-21T07:51:13;27.60;24.90
326;DHT22;150;52.352;14.058;2023-08-21T07:53:39;27.70;24.00
326;DHT22;150;52.352;14.058;2023-08-21T07:56:06;27.70;23.70
326;DHT22;150;52.352;14.058;2023-08-21T07:58:34;27.70;23.90
326;DHT22;150;52.352;14.058;2023-08-21T08:01:02;27.50;23.90
326;DHT22;150;52.352;14.058;2023-08-21T08:03:30;27.60;24.30
326;DHT22;150;52.352;14.058;2023-08-21T08:05:56;27.70;23.80
326;DHT22;150;52.352;14.058;2023-08-21T08:08:23;27.70;23.80
326;DHT22;150;52.352;14.058;2023-08-21T08:10:50;27.90;24.40
326;DHT22;150;52.352;14.058;2023-08-21T08:13:17;28.00;23.70
326;DHT22;150;52.352;14.058;2023-08-21T08:15:45;28.00;23.60
326;DHT22;150;52.352;14.058;2023-08-21T08:18:12;28.10;24.10
326;DHT22;150;52.352;14.058;2023-08-21T08:20:39;28.10;24.10
326;DHT22;150;52.352;14.058;2023-08-21T08:23:06;28.00;23.90
326;DHT22;150;52.352;14.058;2023-08-21T08:25:32;28.00;24.00
326;DHT22;150;52.352;14.058;2023-08-21T08:27:59;28.00;23.90
326;DHT22;150;52.352;14.058;2023-08-21T08:30:26;28.70;24.80
326;DHT22;150;52.352;14.058;2023-08-21T08:33:00;28.10;25.20
326;DHT22;150;52.352;14.058;2023-08-21T08:35:27;28.10;24.10
326;DHT22;150;52.352;14.058;2023-08-21T08:37:53;28.20;24.00
326;DHT22;150;52.352;14.058;2023-08-21T08:40:20;28.20;24.20
326;DHT22;150;52.352;14.058;2023-08-21T08:42:47;28.30;24.30
326;DHT22;150;52.352;14.058;2023-08-21T08:45:14;28.40;24.00
326;DHT22;150;52.352;14.058;2023-08-21T08:47:41;28.80;24.40
326;DHT22;150;52.352;14.058;2023-08-21T08:50:09;28.80;24.30
326;DHT22;150;52.352;14.058;2023-08-21T08:52:38;29.00;24.10
326;DHT22;150;52.352;14.058;2023-08-21T08:55:06;29.00;23.80
326;DHT22;150;52.352;14.058;2023-08-21T08:57:33;29.00;24.10
326;DHT22;150;52.352;14.058;2023-08-21T09:00:00;29.10;24.60
326;DHT22;150;52.352;14.058;2023-08-21T09:02:28;29.20;24.20
326;DHT22;150;52.352;14.058;2023-08-21T09:04:55;29.10;23.30
326;DHT22;150;52.352;14.058;2023-08-21T09:07:24;29.00;23.30
326;DHT22;150;52.352;14.058;2023-08-21T09:09:51;29.20;23.50
326;DHT22;150;52.352;14.058;2023-08-21T09:12:19;29.40;24.30
326;DHT22;150;52.352;14.058;2023-08-21T09:14:49;29.60;22.80
326;DHT22;150;52.352;14.058;2023-08-21T09:17:18;29.60;21.90
326;DHT22;150;52.352;14.058;2023-08-21T09:19:46;29.60;22.10
326;DHT22;150;52.352;14.058;2023-08-21T09:22:17;29.50;22.90
326;DHT22;150;52.352;14.058;2023-08-21T09:25:02;29.40;21.50
326;DHT22;150;52.352;14.058;2023-08-21T09:27:32;29.40;21.00
326;DHT22;150;52.352;14.058;2023-08-21T09:30:00;29.40;21.30
326;DHT22;150;52.352;14.058;2023-08-21T09:32:29;29.40;21.50
326;DHT22;150;52.352;14.058;2023-08-21T09:34:56;29.40;22.70
326;DHT22;150;52.352;14.058;2023-08-21T09:37:28;29.40;22.50
326;DHT22;150;52.352;14.058;2023-08-21T09:40:02;29.40;22.40
326;DHT22;150;52.352;14.058;2023-08-21T09:42:31;29.30;22.00
326;DHT22;150;52.352;14.058;2023-08-21T09:44:57;29.20;22.20
326;DHT22;150;52.352;14.058;2023-08-21T09:47:26;29.20;22.10
326;DHT22;150;52.352;14.058;2023-08-21T09:50:05;29.20;22.70
326;DHT22;150;52.352;14.058;2023-08-21T09:52:32;29.10;22.10
326;DHT22;150;52.352;14.058;2023-08-21T09:55:04;29.20;22.90
326;DHT22;150;52.352;14.058;2023-08-21T09:57:31;29.10;22.10
326;DHT22;150;52.352;14.058;2023-08-21T10:00:01;29.00;22.10
326;DHT22;150;52.352;14.058;2023-08-21T10:02:39;29.00;21.20
326;DHT22;150;52.352;14.058;2023-08-21T10:05:07;29.00;21.60
326;DHT22;150;52.352;14.058;2023-08-21T10:07:34;29.00;22.10
326;DHT22;150;52.352;14.058;2023-08-21T10:10:02;29.10;22.70
326;DHT22;150;52.352;14.058;2023-08-21T10:12:29;29.20;22.60
326;DHT22;150;52.352;14.058;2023-08-21T10:14:56;29.10;22.30
326;DHT22;150;52.352;14.058;2023-08-21T10:17:23;29.10;22.40
326;DHT22;150;52.352;14.058;2023-08-21T10:19:51;29.20;21.70
326;DHT22;150;52.352;14.058;2023-08-21T10:22:39;29.40;22.40
326;DHT22;150;52.352;14.058;2023-08-21T10:25:17;29.30;21.10
326;DHT22;150;52.352;14.058;2023-08-21T10:27:46;29.20;21.70
326;DHT22;150;52.352;14.058;2023-08-21T10:30:20;29.20;21.10
326;DHT22;150;52.352;14.058;2023-08-21T10:32:48;29.40;21.00
326;DHT22;150;52.352;14.058;2023-08-21T10:35:15;29.50;20.50
326;DHT22;150;52.352;14.058;2023-08-21T10:38:10;29.60;18.90
326;DHT22;150;52.352;14.058;2023-08-21T10:40:39;29.60;18.00
326;DHT22;150;52.352;14.058;2023-08-21T10:43:37;29.60;18.30
326;DHT22;150;52.352;14.058;2023-08-21T10:46:03;29.60;17.30
326;DHT22;150;52.352;14.058;2023-08-21T10:48:30;29.60;18.90
326;DHT22;150;52.352;14.058;2023-08-21T10:50:58;29.70;18.00
326;DHT22;150;52.352;14.058;2023-08-21T10:53:27;29.60;14.80
326;DHT22;150;52.352;14.058;2023-08-21T10:55:56;29.70;16.00
326;DHT22;150;52.352;14.058;2023-08-21T10:58:22;29.70;14.10
326;DHT22;150;52.352;14.058;2023-08-21T11:00:56;29.80;12.40
326;DHT22;150;52.352;14.058;2023-08-21T11:03:23;30.00;13.90
326;DHT22;150;52.352;14.058;2023-08-21T11:06:00;30.20;14.00
326;DHT22;150;52.352;14.058;2023-08-21T11:08:28;30.30;14.00
326;DHT22;150;52.352;14.058;2023-08-21T11:10:56;30.50;13.50
326;DHT22;150;52.352;14.058;2023-08-21T11:13:23;30.50;13.30
326;DHT22;150;52.352;14.058;2023-08-21T11:15:57;30.50;13.00
326;DHT22;150;52.352;14.058;2023-08-21T11:18:29;30.50;13.30
326;DHT22;150;52.352;14.058;2023-08-21T11:21:03;30.50;11.20
326;DHT22;150;52.352;14.058;2023-08-21T11:23:32;30.40;11.30
326;DHT22;150;52.352;14.058;2023-08-21T11:26:00;30.30;11.30
326;DHT22;150;52.352;14.058;2023-08-21T11:28:28;30.30;10.80
326;DHT22;150;52.352;14.058;2023-08-21T11:30:56;30.30;10.80
326;DHT22;150;52.352;14.058;2023-08-21T11:33:23;30.30;10.20
326;DHT22;150;52.352;14.058;2023-08-21T11:35:50;30.30;10.60
326;DHT22;150;52.352;14.058;2023-08-21T11:38:21;30.40;10.50
326;DHT22;150;52.352;14.058;2023-08-21T11:40:53;30.50;10.40
326;DHT22;150;52.352;14.058;2023-08-21T11:43:21;30.70;9.50
326;DHT22;150;52.352;14.058;2023-08-21T11:45:48;30.70;9.50
326;DHT22;150;52.352;14.058;2023-08-21T11:48:15;30.70;8.70
326;DHT22;150;52.352;14.058;2023-08-21T11:50:47;30.70;9.10
326;DHT22;150;52.352;14.058;2023-08-21T11:53:14;30.60;8.00
326;DHT22;150;52.352;14.058;2023-08-21T11:55:41;30.60;8.40
326;DHT22;150;52.352;14.058;2023-08-21T11:58:07;30.70;8.60
326;DHT22;150;52.352;14.058;2023-08-21T12:00:35;30.90;7.00
326;DHT22;150;52.352;14.058;2023-08-21T12:03:02;31.00;8.70
326;DHT22;150;52.352;14.058;2023-08-21T12:05:32;31.00;6.60
326;DHT22;150;52.352;14.058;2023-08-21T12:07:59;31.00;6.60
326;DHT22;150;52.352;14.058;2023-08-21T12:10:26;30.80;7.00
326;DHT22;150;52.352;14.058;2023-08-21T12:12:54;30.80;6.70
326;DHT22;150;52.352;14.058;2023-08-21T12:15:20;30.70;7.00
326;DHT22;150;52.352;14.058;2023-08-21T12:17:48;30.70;7.30
326;DHT22;150;52.352;14.058;2023-08-21T12:20:15;30.70;7.40
326;DHT22;150;52.352;14.058;2023-08-21T12:22:42;30.70;7.30
326;DHT22;150;52.352;14.058;2023-08-21T12:25:08;30.90;7.30
326;DHT22;150;52.352;14.058;2023-08-21T12:27:35;30.90;6.80
326;DHT22;150;52.352;14.058;2023-08-21T12:30:02;30.90;7.30
326;DHT22;150;52.352;14.058;2023-08-21T12:32:29;30.90;7.20
326;DHT22;150;52.352;14.058;2023-08-21T12:34:57;31.00;6.70
326;DHT22;150;52.352;14.058;2023-08-21T12:37:23;31.40;6.30
326;DHT22;150;52.352;14.058;2023-08-21T12:39:50;31.30;6.70
326;DHT22;150;52.352;14.058;2023-08-21T12:42:17;31.40;6.90
326;DHT22;150;52.352;14.058;2023-08-21T12:44:44;31.30;6.00
326;DHT22;150;52.352;14.058;2023-08-21T12:47:10;31.20;6.30
326;DHT22;150;52.352;14.058;2023-08-21T12:49:37;31.20;6.50
326;DHT22;150;52.352;14.058;2023-08-21T12:52:05;31.30;5.70
326;DHT22;150;52.352;14.058;2023-08-21T12:54:32;31.30;6.60
326;DHT22;150;52.352;14.058;2023-08-21T12:56:59;31.40;6.30
326;DHT22;150;52.352;14.058;2023-08-21T12:59:25;31.50;7.60
326;DHT22;150;52.352;14.058;2023-08-21T13:01:52;31.40;7.00
326;DHT22;150;52.352;14.058;2023-08-21T13:04:18;31.20;6.60
326;DHT22;150;52.352;14.058;2023-08-21T13:06:45;31.10;6.20
326;DHT22;150;52.352;14.058;2023-08-21T13:09:13;31.00;6.60
326;DHT22;150;52.352;14.058;2023-08-21T13:11:40;31.00;6.40
326;DHT22;150;52.352;14.058;2023-08-21T13:14:06;31.10;6.90
326;DHT22;150;52.352;14.058;2023-08-21T13:16:33;31.20;8.20
326;DHT22;150;52.352;14.058;2023-08-21T13:18:59;31.30;7.70
326;DHT22;150;52.352;14.058;2023-08-21T13:21:26;31.10;7.60
326;DHT22;150;52.352;14.058;2023-08-21T13:23:53;31.00;7.40
326;DHT22;150;52.352;14.058;2023-08-21T13:26:20;30.80;7.20
326;DHT22;150;52.352;14.058;2023-08-21T13:28:47;30.50;7.80
326;DHT22;150;52.352;14.058;2023-08-21T13:31:14;30.50;7.80
326;DHT22;150;52.352;14.058;2023-08-21T13:33:47;30.40;9.30
326;DHT22;150;52.352;14.058;2023-08-21T13:36:15;30.40;9.30
326;DHT22;150;52.352;14.058;2023-08-21T13:38:43;30.50;8.60
326;DHT22;150;52.352;14.058;2023-08-21T13:41:10;30.40;7.40
326;DHT22;150;52.352;14.058;2023-08-21T13:43:38;30.40;9.30
326;DHT22;150;52.352;14.058;2023-08-21T13:46:05;30.50;8.10
326;DHT22;150;52.352;14.058;2023-08-21T13:48:31;30.40;9.10
326;DHT22;150;52.352;14.058;2023-08-21T13:50:58;30.40;9.30
326;DHT22;150;52.352;14.058;2023-08-21T13:53:25;30.50;9.40
326;DHT22;150;52.352;14.058;2023-08-21T13:55:55;30.60;9.40
326;DHT22;150;52.352;14.058;2023-08-21T13:58:21;30.70;7.60
326;DHT22;150;52.352;14.058;2023-08-21T14:00:49;30.70;8.00
326;DHT22;150;52.352;14.058;2023-08-21T14:03:16;30.60;7.30
326;DHT22;150;52.352;14.058;2023-08-21T14:05:43;30.60;7.80
326;DHT22;150;52.352;14.058;2023-08-21T14:08:09;30.60;8.00
326;DHT22;150;52.352;14.058;2023-08-21T14:10:36;30.60;7.70
326;DHT22;150;52.352;14.058;2023-08-21T14:13:03;30.50;8.10
326;DHT22;150;52.352;14.058;2023-08-21T14:15:31;30.40;8.80
326;DHT22;150;52.352;14.058;2023-08-21T14:17:59;30.40;9.30
326;DHT22;150;52.352;14.058;2023-08-21T14:20:26;30.40;8.40
326;DHT22;150;52.352;14.058;2023-08-21T14:22:53;30.50;7.90
326;DHT22;150;52.352;14.058;2023-08-21T14:25:19;30.40;8.20
326;DHT22;150;52.352;14.058;2023-08-21T14:27:47;30.60;8.40
326;DHT22;150;52.352;14.058;2023-08-21T14:30:14;30.60;8.50
326;DHT22;150;52.352;14.058;2023-08-21T14:32:41;30.60;7.80
326;DHT22;150;52.352;14.058;2023-08-21T14:35:09;30.70;8.40
326;DHT22;150;52.352;14.058;2023-08-21T14:37:35;30.80;7.70
326;DHT22;150;52.352;14.058;2023-08-21T14:40:03;30.90;7.60
326;DHT22;150;52.352;14.058;2023-08-21T14:42:33;31.00;7.40
326;DHT22;150;52.352;14.058;2023-08-21T14:45:00;30.90;7.00
326;DHT22;150;52.352;14.058;2023-08-21T14:47:26;30.80;7.30
326;DHT22;150;52.352;14.058;2023-08-21T14:49:53;30.70;8.00
326;DHT22;150;52.352;14.058;2023-08-21T14:52:21;30.90;8.40
326;DHT22;150;52.352;14.058;2023-08-21T14:54:48;30.90;8.10
326;DHT22;150;52.352;14.058;2023-08-21T14:57:15;30.90;7.20
326;DHT22;150;52.352;14.058;2023-08-21T14:59:41;30.90;9.10
326;DHT22;150;52.352;14.058;2023-08-21T15:02:08;30.80;7.80
326;DHT22;150;52.352;14.058;2023-08-21T15:04:34;30.90;8.30
326;DHT22;150;52.352;14.058;2023-08-21T15:07:02;30.90;8.00
326;DHT22;150;52.352;14.058;2023-08-21T15:09:30;31.00;7.30
326;DHT22;150;52.352;14.058;2023-08-21T15:11:56;31.00;7.60
326;DHT22;150;52.352;14.058;2023-08-21T15:14:23;31.00;8.00
326;DHT22;150;52.352;14.058;2023-08-21T15:16:50;30.80;8.00
326;DHT22;150;52.352;14.058;2023-08-21T15:19:16;30.60;7.90
326;DHT22;150;52.352;14.058;2023-08-21T15:21:43;30.70;8.60
326;DHT22;150;52.352;14.058;2023-08-21T15:24:09;30.60;8.20
326;DHT22;150;52.352;14.058;2023-08-21T15:26:37;30.60;7.00
326;DHT22;150;52.352;14.058;2023-08-21T15:29:04;30.60;8.20
326;DHT22;150;52.352;14.058;2023-08-21T15:31:31;30.70;7.90
326;DHT22;150;52.352;14.058;2023-08-21T15:33:57;30.70;8.10
326;DHT22;150;52.352;14.058;2023-08-21T15:36:24;30.70;8.30
326;DHT22;150;52.352;14.058;2023-08-21T15:38:50;30.70;8.20
326;DHT22;150;52.352;14.058;2023-08-21T15:41:17;30.60;8.10
326;DHT22;150;52.352;14.058;2023-08-21T15:43:45;30.50;8.70
326;DHT22;150;52.352;14.058;2023-08-21T15:46:12;30.50;8.70
326;DHT22;150;52.352;14.058;2023-08-21T15:48:38;30.50;8.10
326;DHT22;150;52.352;14.058;2023-08-21T15:51:05;30.30;8.90
326;DHT22;150;52.352;14.058;2023-08-21T15:53:31;30.20;8.40
326;DHT22;150;52.352;14.058;2023-08-21T15:55:58;30.10;8.70
326;DHT22;150;52.352;14.058;2023-08-21T15:58:25;30.00;9.10
326;DHT22;150;52.352;14.058;2023-08-21T16:00:53;29.90;9.10
326;DHT22;150;52.352;14.058;2023-08-21T16:03:20;29.80;9.00
326;DHT22;150;52.352;14.058;2023-08-21T16:05:46;29.80;9.70
326;DHT22;150;52.352;14.058;2023-08-21T16:08:13;29.80;9.60
326;DHT22;150;52.352;14.058;2023-08-21T16:10:40;29.90;9.60
326;DHT22;150;52.352;14.058;2023-08-21T16:13:06;30.00;9.10
326;DHT22;150;52.352;14.058;2023-08-21T16:15:33;30.00;9.20
326;DHT22;150;52.352;14.058;2023-08-21T16:18:01;30.00;10.40
326;DHT22;150;52.352;14.058;2023-08-21T16:20:28;30.00;9.10
326;DHT22;150;52.352;14.058;2023-08-21T16:22:55;29.90;9.10
326;DHT22;150;52.352;14.058;2023-08-21T16:25:22;30.00;9.20